Milano Linate Airport

LIML · Lombardy, 意大利

罗盘
风向 的 Milano Linate Airport 18/36
风: 1 kt, 1 beaufort

1 kt

改变
0 1.000 2.000 3.000 4.000 5.000
CAVOK
METAR LSZA 061050Z VRB01KT CAVOK 07/01 Q1016

METAR Milano Linate Airport - LIML/LIN

Milano Linate Airport是,意大利中的中型机场。 该机场有2条跑道: 18/36 和 17/35. 该领域的国际民航组织标志是LIML 它的国际航空运输协会代码是LIN.

这份报告是针对2022年12月6日 11:50, 当地时间在Lugano Airport进行的。

机场观察

可变方向的风很小或没有风。

天气为CAVOK。这意味着在5.000 ft或MSA(最低安全高度)以下(以较高者为准)以下没有云。这也意味着没有观测到积雨云或高耸的积云,可见度为10 km 或者更多或更高。此外,不会有雾,降雨或其他重要天气。

温度和风寒是7 °C。 露点为1 °C,相对湿度为66%。 海平面上的气压为1016 hPa (QNH)。

白天

今天,太阳从07:47升起,在16:40降落。 这适用于Milano Linate Airport,世界夏令时可能有所不同。 当地时间与世界标准时间之间的时差为+1 小时。 当前,没有夏令时有效。

公司介绍

我们没有关于这个机场的公司信息。

体会

到Vliegles.nl去找飞行课程,跳伞和其他飞行体验。 浏览页面,了解Milano Linate Airport附近所有可用的活动。 你也可以使用搜索功能来寻找你所在地附近的特定飞行课程、跳伞或其他飞行体验。

跑道

Id 标题 侧风 逆风 侧风 %
18/36 180°-360° 1 kt 0 %
17/35 170°-350° 17 %

逆风成分最大的方向会被突出显示,并用于横风计算。 这并不一定意味着这个方向在使用。

温度 & 天气

温度 7 °C
露点 1 °C
相对湿度 66%
Kp-index 0 (0-9)

白天

日出
07:51
中午
12:15
日落
16:39 (4:39)

小工具

你想在你的网站上有一个关于Milano Linate Airport的当前航空天气(METAR)的小部件吗?

显示HTML代码

我们和第三方通过cookies跟踪您在我们网站上的互联网行为。如果你继续,我们认为你同意我们的饼干政策